createdAt,value
2022-11-26T00:00:53.731Z,2.97
2022-11-26T00:03:20.721Z,3.33
2022-11-26T00:05:50.679Z,3.10
2022-11-26T00:08:24.770Z,3.13
2022-11-26T00:10:53.419Z,2.97
2022-11-26T00:13:23.453Z,4.57
2022-11-26T00:15:50.540Z,3.70
2022-11-26T00:18:18.232Z,4.13
2022-11-26T00:20:46.531Z,4.50
2022-11-26T00:23:21.195Z,3.90
2022-11-26T00:26:11.930Z,3.83
2022-11-26T00:28:40.872Z,3.67
2022-11-26T00:31:14.302Z,3.22
2022-11-26T00:33:40.939Z,3.92
2022-11-26T00:36:29.991Z,3.20
2022-11-26T00:39:01.681Z,5.05
2022-11-26T00:41:33.290Z,3.20
2022-11-26T00:44:00.141Z,3.88
2022-11-26T00:46:27.292Z,3.22
2022-11-26T00:48:53.902Z,3.70
2022-11-26T00:51:25.910Z,3.30
2022-11-26T00:53:59.211Z,2.90
2022-11-26T00:56:26.266Z,4.88
2022-11-26T00:58:52.756Z,3.35
2022-11-26T01:01:22.149Z,3.97
2022-11-26T01:03:48.861Z,4.20
2022-11-26T01:06:23.958Z,3.22
2022-11-26T01:08:50.803Z,3.77
2022-11-26T01:11:20.596Z,5.45
2022-11-26T01:13:49.343Z,3.33
2022-11-26T01:16:20.680Z,3.90
2022-11-26T01:18:49.175Z,3.83
2022-11-26T01:21:15.835Z,2.58
2022-11-26T01:23:42.383Z,2.80
2022-11-26T01:26:24.383Z,3.85
2022-11-26T01:28:51.518Z,3.95
2022-11-26T01:31:21.325Z,4.18
2022-11-26T01:33:48.679Z,3.75
2022-11-26T01:36:27.442Z,3.30
2022-11-26T01:38:56.034Z,4.32
2022-11-26T01:41:43.772Z,3.90
2022-11-26T01:44:22.627Z,6.50
2022-11-26T01:46:51.098Z,7.38
2022-11-26T01:49:29.492Z,5.55
2022-11-26T01:52:14.131Z,6.35
2022-11-26T01:54:43.349Z,4.47
2022-11-26T01:57:23.808Z,3.92
2022-11-26T01:59:56.902Z,3.92
2022-11-26T02:02:27.438Z,3.60
2022-11-26T02:05:07.582Z,3.90
2022-11-26T02:07:35.598Z,3.35
2022-11-26T02:10:02.225Z,3.20
2022-11-26T02:12:29.120Z,3.83
2022-11-26T02:14:55.809Z,3.17
2022-11-26T02:17:34.913Z,3.30
2022-11-26T02:20:23.367Z,3.20
2022-11-26T02:22:49.872Z,3.15
2022-11-26T02:25:37.426Z,3.20
2022-11-26T02:28:22.674Z,2.80
2022-11-26T02:30:56.876Z,3.92
2022-11-26T02:33:58.390Z,3.35
2022-11-26T02:36:35.463Z,3.47
2022-11-26T02:39:16.892Z,2.80
2022-11-26T02:41:52.430Z,3.88
2022-11-26T02:44:25.691Z,3.53
2022-11-26T02:47:01.596Z,3.85
2022-11-26T02:49:30.648Z,3.58
2022-11-26T02:52:01.238Z,4.22
2022-11-26T02:54:29.494Z,2.85
2022-11-26T02:56:58.183Z,2.95
2022-11-26T02:59:24.933Z,3.30
2022-11-26T03:01:58.077Z,4.38
2022-11-26T03:04:33.291Z,2.63
2022-11-26T03:07:02.716Z,2.50
2022-11-26T03:09:39.470Z,2.38
2022-11-26T03:12:06.463Z,2.40
2022-11-26T03:14:33.102Z,2.42
2022-11-26T03:16:59.582Z,2.87
2022-11-26T03:19:26.119Z,2.20
2022-11-26T03:21:52.636Z,3.13
2022-11-26T03:24:19.127Z,3.05
2022-11-26T03:26:45.944Z,2.72
2022-11-26T03:29:12.456Z,3.20
2022-11-26T03:31:39.028Z,2.75
2022-11-26T03:34:05.591Z,3.07
2022-11-26T03:36:32.291Z,3.00
2022-11-26T03:38:58.790Z,2.92
2022-11-26T03:41:25.346Z,2.80
2022-11-26T03:43:51.928Z,2.83
2022-11-26T03:46:18.497Z,3.43
2022-11-26T03:48:49.155Z,2.60
2022-11-26T03:51:18.748Z,1.92
2022-11-26T03:53:47.068Z,2.85
2022-11-26T03:56:13.579Z,1.95
2022-11-26T03:58:40.087Z,2.40
2022-11-26T04:01:12.138Z,3.45
2022-11-26T04:03:39.710Z,2.30
2022-11-26T04:06:06.955Z,2.20
2022-11-26T04:08:33.558Z,3.22
2022-11-26T04:11:00.115Z,2.63
2022-11-26T04:13:26.618Z,3.17
2022-11-26T04:15:53.214Z,2.10
2022-11-26T04:18:19.744Z,3.80
2022-11-26T04:20:51.423Z,2.27
2022-11-26T04:23:19.906Z,2.40
2022-11-26T04:25:49.344Z,3.55
2022-11-26T04:28:20.040Z,3.30
2022-11-26T04:30:48.929Z,3.97
2022-11-26T04:33:15.500Z,3.10
2022-11-26T04:35:42.796Z,2.53
2022-11-26T04:38:09.500Z,3.60
2022-11-26T04:40:36.575Z,4.07
2022-11-26T04:43:03.245Z,3.53
2022-11-26T04:45:29.857Z,3.30
2022-11-26T04:47:56.381Z,3.40
2022-11-26T04:50:23.030Z,3.85
2022-11-26T04:52:52.420Z,3.00
2022-11-26T04:55:21.766Z,3.55
2022-11-26T04:57:51.458Z,3.83
2022-11-26T05:00:22.690Z,4.20
2022-11-26T05:02:53.007Z,3.78
2022-11-26T05:05:23.436Z,3.25
2022-11-26T05:07:51.118Z,4.38
2022-11-26T05:10:20.431Z,2.95
2022-11-26T05:12:47.002Z,3.90
2022-11-26T05:15:13.488Z,5.03
2022-11-26T05:17:40.091Z,3.10
2022-11-26T05:20:07.415Z,4.60
2022-11-26T05:22:34.037Z,3.88
2022-11-26T05:25:00.570Z,3.42
2022-11-26T05:27:27.100Z,3.30
2022-11-26T05:29:53.595Z,3.30
2022-11-26T05:32:23.020Z,3.80
2022-11-26T05:34:54.501Z,4.72
2022-11-26T05:37:25.210Z,4.10
2022-11-26T05:39:54.753Z,3.50
2022-11-26T05:42:24.166Z,3.65
2022-11-26T05:44:52.524Z,3.63
2022-11-26T05:47:19.115Z,4.10
2022-11-26T05:49:45.651Z,4.15
2022-11-26T05:52:12.199Z,4.05
2022-11-26T05:54:38.927Z,3.70
2022-11-26T05:57:05.648Z,4.10
2022-11-26T05:59:32.129Z,3.83
2022-11-26T06:01:58.776Z,3.53
2022-11-26T06:04:25.376Z,3.90
2022-11-26T06:06:54.302Z,2.42
2022-11-26T06:09:21.034Z,2.80
2022-11-26T06:11:50.138Z,3.38
2022-11-26T06:14:17.331Z,2.75
2022-11-26T06:16:43.865Z,4.35
2022-11-26T06:19:11.514Z,3.75
2022-11-26T06:21:38.110Z,3.20
2022-11-26T06:24:05.129Z,3.15
2022-11-26T06:26:31.921Z,3.95
2022-11-26T06:28:58.449Z,3.25
2022-11-26T06:31:25.737Z,3.78
2022-11-26T06:33:56.704Z,3.30
2022-11-26T06:36:25.647Z,2.97
2022-11-26T06:38:52.248Z,3.50
2022-11-26T06:41:19.039Z,2.83
2022-11-26T06:43:45.558Z,3.30
2022-11-26T06:46:12.486Z,3.45
2022-11-26T06:48:39.676Z,3.42
2022-11-26T06:51:11.676Z,3.35
2022-11-26T06:53:38.552Z,3.40
2022-11-26T06:56:08.084Z,4.18
2022-11-26T06:58:34.747Z,3.30
2022-11-26T07:01:07.875Z,3.85
2022-11-26T07:03:34.427Z,3.92
2022-11-26T07:06:00.929Z,3.50
2022-11-26T07:08:27.792Z,3.08
2022-11-26T07:10:54.312Z,2.67
2022-11-26T07:13:20.976Z,3.15
2022-11-26T07:15:47.563Z,2.97
2022-11-26T07:18:14.094Z,3.40
2022-11-26T07:20:40.593Z,3.17
2022-11-26T07:23:07.105Z,2.45
2022-11-26T07:25:33.605Z,2.70
2022-11-26T07:28:00.106Z,3.30
2022-11-26T07:30:29.051Z,2.83
2022-11-26T07:32:55.545Z,3.20
2022-11-26T07:35:22.047Z,3.72
2022-11-26T07:37:48.629Z,2.80
2022-11-26T07:40:15.197Z,3.00
2022-11-26T07:42:41.744Z,2.92
2022-11-26T07:45:08.569Z,3.42
2022-11-26T07:47:35.095Z,3.70
2022-11-26T07:50:01.734Z,3.58
2022-11-26T07:52:33.714Z,2.67
2022-11-26T07:55:00.926Z,5.28
2022-11-26T07:57:31.696Z,3.38
2022-11-26T08:00:00.139Z,2.95
2022-11-26T08:02:26.920Z,3.75
2022-11-26T08:04:53.738Z,3.67
2022-11-26T08:07:26.030Z,4.18
2022-11-26T08:09:56.688Z,3.85
2022-11-26T08:12:23.375Z,3.28
2022-11-26T08:14:50.122Z,3.38
2022-11-26T08:17:16.861Z,3.95
2022-11-26T08:19:43.634Z,3.17
2022-11-26T08:22:10.375Z,3.13
2022-11-26T08:24:37.334Z,4.28
2022-11-26T08:27:04.380Z,5.50
2022-11-26T08:29:36.810Z,8.02
2022-11-26T08:32:04.438Z,4.57
2022-11-26T08:34:33.793Z,4.38
2022-11-26T08:37:02.277Z,4.43
2022-11-26T08:39:29.054Z,4.03
2022-11-26T08:41:56.448Z,4.72
2022-11-26T08:44:23.065Z,4.88
2022-11-26T08:46:50.320Z,4.97
2022-11-26T08:49:17.223Z,4.72
2022-11-26T08:51:45.773Z,4.47
2022-11-26T08:54:14.714Z,5.07
2022-11-26T08:56:41.277Z,5.22
2022-11-26T08:59:07.822Z,5.40
2022-11-26T09:01:34.946Z,5.43
2022-11-26T09:04:03.221Z,6.80
2022-11-26T09:06:36.808Z,6.80
2022-11-26T09:09:14.413Z,7.20
2022-11-26T09:12:02.262Z,7.45
2022-11-26T09:14:36.004Z,5.97
2022-11-26T09:17:03.013Z,4.80
2022-11-26T09:19:33.837Z,2.58
2022-11-26T09:22:04.005Z,3.45
2022-11-26T09:24:34.043Z,3.10
2022-11-26T09:27:07.780Z,4.75
2022-11-26T09:29:34.711Z,4.93
2022-11-26T09:34:52.488Z,4.68
2022-11-26T09:37:19.382Z,6.70
2022-11-26T09:39:46.420Z,5.03
2022-11-26T09:42:21.948Z,5.28
2022-11-26T09:45:12.762Z,5.05
2022-11-26T09:47:46.419Z,4.10
2022-11-26T09:50:16.026Z,5.25
2022-11-26T09:53:04.191Z,3.33
2022-11-26T09:55:36.353Z,3.15
2022-11-26T09:58:15.305Z,4.10
2022-11-26T10:00:44.836Z,3.88
2022-11-26T10:03:16.239Z,3.72
2022-11-26T10:05:49.976Z,3.78
2022-11-26T10:08:40.650Z,4.30
2022-11-26T10:11:10.092Z,4.43
2022-11-26T10:14:03.641Z,4.80
2022-11-26T10:16:43.760Z,3.38
2022-11-26T10:19:25.679Z,2.97
2022-11-26T10:21:59.054Z,3.63
2022-11-26T10:24:35.043Z,2.95
2022-11-26T10:27:10.806Z,3.78
2022-11-26T10:29:42.130Z,3.38
2022-11-26T10:32:16.333Z,3.17
2022-11-26T10:34:50.882Z,3.33
2022-11-26T10:37:20.706Z,3.17
2022-11-26T10:39:47.985Z,3.30
2022-11-26T10:42:17.437Z,3.58
2022-11-26T10:44:45.175Z,3.00
2022-11-26T10:47:27.220Z,2.58
2022-11-26T10:50:45.472Z,2.95
2022-11-26T10:53:06.642Z,2.92
2022-11-26T10:55:40.931Z,3.22
2022-11-26T10:58:16.502Z,3.30
2022-11-26T11:00:44.856Z,3.50
2022-11-26T11:04:07.368Z,4.03
2022-11-26T11:06:42.585Z,3.75
2022-11-26T11:09:41.681Z,2.97
2022-11-26T11:12:10.746Z,2.90
2022-11-26T11:14:42.427Z,3.10
2022-11-26T11:17:31.637Z,3.08
2022-11-26T11:20:25.739Z,3.30
2022-11-26T11:23:01.733Z,2.60
2022-11-26T11:25:33.591Z,2.10
2022-11-26T11:28:13.200Z,2.67
2022-11-26T11:30:41.392Z,2.05
2022-11-26T11:33:24.520Z,3.58
2022-11-26T11:36:04.475Z,2.10
2022-11-26T11:39:03.897Z,1.70
2022-11-26T11:41:43.645Z,1.98
2022-11-26T11:44:10.335Z,2.88
2022-11-26T11:47:02.979Z,2.70
2022-11-26T11:49:48.646Z,1.90
2022-11-26T11:52:36.682Z,1.77
2022-11-26T11:55:21.474Z,2.40
2022-11-26T11:58:14.513Z,2.08
2022-11-26T12:01:03.287Z,2.50
2022-11-26T12:03:50.784Z,2.63
2022-11-26T12:06:46.025Z,2.53
2022-11-26T12:09:38.673Z,2.25
2022-11-26T12:12:20.327Z,2.80
2022-11-26T12:15:07.232Z,2.08
2022-11-26T12:17:40.410Z,2.80
2022-11-26T12:20:34.521Z,2.63
2022-11-26T12:23:14.462Z,2.08
2022-11-26T12:25:43.413Z,2.50
2022-11-26T12:28:16.453Z,2.05
2022-11-26T12:30:55.720Z,2.22
2022-11-26T12:34:08.788Z,2.78
2022-11-26T12:36:41.387Z,2.72
2022-11-26T12:39:19.201Z,2.90
2022-11-26T12:42:07.772Z,2.03
2022-11-26T12:44:41.001Z,2.28
2022-11-26T12:47:26.896Z,2.83
2022-11-26T12:50:02.502Z,2.08
2022-11-26T12:53:02.127Z,2.00
2022-11-26T12:55:46.204Z,2.33
2022-11-26T12:58:26.568Z,2.13
2022-11-26T13:00:54.895Z,3.85
2022-11-26T13:03:32.264Z,2.83
2022-11-26T13:06:20.021Z,2.53
2022-11-26T13:09:01.844Z,2.13
2022-11-26T13:12:01.500Z,2.67
2022-11-26T13:14:42.130Z,3.15
2022-11-26T13:17:22.856Z,2.47
2022-11-26T13:20:05.072Z,2.03
2022-11-26T13:23:09.055Z,2.33
2022-11-26T13:25:50.782Z,1.83
2022-11-26T13:28:55.772Z,1.67
2022-11-26T13:31:33.415Z,2.47
2022-11-26T13:34:21.345Z,1.70
2022-11-26T13:37:06.417Z,1.35
2022-11-26T13:40:14.786Z,1.95
2022-11-26T13:43:18.647Z,1.75
2022-11-26T13:45:57.464Z,1.70
2022-11-26T13:49:06.073Z,1.75
2022-11-26T13:51:42.004Z,2.30
2022-11-26T13:54:19.520Z,2.00
2022-11-26T13:56:47.996Z,2.42
2022-11-26T13:59:28.428Z,2.45
2022-11-26T14:01:55.571Z,2.13
2022-11-26T14:04:22.101Z,1.50
2022-11-26T14:07:05.952Z,2.40
2022-11-26T14:09:44.715Z,1.90
2022-11-26T14:12:12.002Z,1.83
2022-11-26T14:14:40.720Z,1.98
2022-11-26T14:17:07.445Z,2.17
2022-11-26T14:19:40.308Z,1.88
2022-11-26T14:22:15.953Z,1.60
2022-11-26T14:24:48.814Z,1.80
2022-11-26T14:27:18.536Z,2.25
2022-11-26T14:29:47.239Z,2.22
2022-11-26T14:32:17.068Z,2.08
2022-11-26T14:34:51.045Z,2.05
2022-11-26T14:37:24.131Z,1.85
2022-11-26T14:40:19.663Z,2.25
2022-11-26T14:42:46.155Z,1.83
2022-11-26T14:45:19.475Z,2.63
2022-11-26T14:47:50.136Z,1.95
2022-11-26T14:50:20.162Z,2.20
2022-11-26T14:52:51.463Z,1.52
2022-11-26T14:55:21.074Z,2.38
2022-11-26T14:58:07.589Z,3.10
2022-11-26T15:00:41.381Z,2.10
2022-11-26T15:03:24.947Z,1.50
2022-11-26T15:05:51.639Z,1.90
2022-11-26T15:08:20.406Z,2.05
2022-11-26T15:10:51.584Z,1.75
2022-11-26T15:13:41.706Z,3.30
2022-11-26T15:16:30.178Z,2.63
2022-11-26T15:18:58.450Z,2.30
2022-11-26T15:21:27.222Z,1.70
2022-11-26T15:23:56.785Z,1.50
2022-11-26T15:26:26.507Z,2.67
2022-11-26T15:28:53.104Z,2.50
2022-11-26T15:31:19.878Z,2.33
2022-11-26T15:33:47.202Z,2.40
2022-11-26T15:36:17.639Z,2.08
2022-11-26T15:39:07.231Z,2.60
2022-11-26T15:41:42.444Z,2.15
2022-11-26T15:44:25.279Z,2.20
2022-11-26T15:46:54.217Z,1.77
2022-11-26T15:49:28.807Z,1.95
2022-11-26T15:52:00.682Z,2.58
2022-11-26T15:54:49.599Z,2.90
2022-11-26T15:57:32.912Z,2.95
2022-11-26T16:00:20.339Z,1.48
2022-11-26T16:02:46.947Z,2.20
2022-11-26T16:05:28.959Z,2.80
2022-11-26T16:08:06.540Z,2.75
2022-11-26T16:10:36.669Z,2.53
2022-11-26T16:13:15.544Z,2.63
2022-11-26T16:15:51.712Z,2.00
2022-11-26T16:18:25.472Z,2.05
2022-11-26T16:21:08.593Z,2.08
2022-11-26T16:23:38.386Z,1.92
2022-11-26T16:26:12.966Z,2.55
2022-11-26T16:28:39.537Z,1.70
2022-11-26T16:31:07.168Z,2.08
2022-11-26T16:33:36.159Z,2.15
2022-11-26T16:36:12.917Z,2.40
2022-11-26T16:38:39.417Z,2.35
2022-11-26T16:41:17.264Z,3.28
2022-11-26T16:43:43.828Z,2.10
2022-11-26T16:46:16.766Z,2.20
2022-11-26T16:48:44.835Z,2.70
2022-11-26T16:51:11.716Z,2.58
2022-11-26T16:53:38.354Z,2.20
2022-11-26T16:58:50.736Z,2.95
2022-11-26T17:01:17.645Z,2.22
2022-11-26T17:03:44.573Z,2.22
2022-11-26T17:06:16.323Z,1.88
2022-11-26T17:08:49.126Z,2.65
2022-11-26T17:11:16.155Z,2.22
2022-11-26T17:13:42.980Z,2.17
2022-11-26T17:16:29.166Z,2.15
2022-11-26T17:18:58.327Z,3.00
2022-11-26T17:21:24.858Z,2.90
2022-11-26T17:23:51.452Z,2.83
2022-11-26T17:26:22.802Z,2.55
2022-11-26T17:28:50.420Z,3.60
2022-11-26T17:31:17.766Z,4.30
2022-11-26T17:33:44.379Z,4.43
2022-11-26T17:36:19.661Z,3.92
2022-11-26T17:38:47.087Z,3.42
2022-11-26T17:41:14.621Z,5.28
2022-11-26T17:43:41.517Z,2.83
2022-11-26T17:46:20.312Z,3.67
2022-11-26T17:48:48.287Z,4.03
2022-11-26T17:51:14.938Z,3.63
2022-11-26T17:53:42.739Z,4.32
2022-11-26T17:56:17.151Z,4.38
2022-11-26T17:58:43.697Z,4.05
2022-11-26T18:01:10.293Z,4.25
2022-11-26T18:03:36.947Z,4.85
2022-11-26T18:06:04.345Z,3.13
2022-11-26T18:08:31.010Z,3.28
2022-11-26T18:10:57.498Z,3.67
2022-11-26T18:13:24.539Z,3.70
2022-11-26T18:15:59.591Z,2.75
2022-11-26T18:18:30.289Z,4.07
2022-11-26T18:20:59.548Z,3.78
2022-11-26T18:23:26.080Z,3.88
2022-11-26T18:25:52.926Z,4.18
2022-11-26T18:28:19.532Z,3.38
2022-11-26T18:30:46.246Z,4.35
2022-11-26T18:33:14.731Z,3.72
2022-11-26T18:35:42.788Z,4.28
2022-11-26T18:38:10.883Z,3.05
2022-11-26T18:40:40.027Z,3.85
2022-11-26T18:43:10.398Z,4.05
2022-11-26T18:45:41.960Z,3.03
2022-11-26T18:48:08.560Z,3.45
2022-11-26T18:50:35.999Z,3.08
2022-11-26T18:53:03.197Z,4.07
2022-11-26T18:55:30.477Z,3.17
2022-11-26T18:58:04.053Z,4.03
2022-11-26T19:00:33.275Z,3.10
2022-11-26T19:02:59.863Z,3.50
2022-11-26T19:05:26.415Z,3.78
2022-11-26T19:07:53.021Z,3.67
2022-11-26T19:10:19.618Z,4.78
2022-11-26T19:12:48.187Z,5.72
2022-11-26T19:15:14.736Z,4.63
2022-11-26T19:17:41.215Z,4.07
2022-11-26T19:20:13.998Z,3.63
2022-11-26T19:22:40.845Z,4.25
2022-11-26T19:25:08.907Z,5.05
2022-11-26T19:27:35.510Z,3.88
2022-11-26T19:30:02.026Z,3.90
2022-11-26T19:32:28.697Z,5.33
2022-11-26T19:34:55.209Z,5.55
2022-11-26T19:37:21.743Z,5.23
2022-11-26T19:40:01.082Z,5.50
2022-11-26T19:42:30.010Z,4.80
2022-11-26T19:44:56.678Z,5.93
2022-11-26T19:48:13.011Z,5.03
2022-11-26T19:55:14.102Z,4.47
2022-11-26T19:57:40.691Z,4.63
2022-11-26T20:00:09.252Z,3.77
2022-11-26T20:02:36.084Z,5.07
2022-11-26T20:05:03.142Z,5.47
2022-11-26T20:07:29.719Z,5.60
2022-11-26T20:09:56.272Z,5.90
2022-11-26T20:12:22.801Z,5.57
2022-11-26T20:14:49.380Z,4.30
2022-11-26T20:17:15.945Z,4.70
2022-11-26T20:19:42.625Z,4.33
2022-11-26T20:22:12.264Z,4.23
2022-11-26T20:24:41.600Z,3.97
2022-11-26T20:27:08.097Z,4.73
2022-11-26T20:29:37.350Z,4.60
2022-11-26T20:32:04.054Z,3.63
2022-11-26T20:34:33.554Z,5.20
2022-11-26T20:37:00.213Z,4.07
2022-11-26T20:39:28.655Z,3.67
2022-11-26T20:41:55.545Z,4.20
2022-11-26T20:44:24.141Z,4.77
2022-11-26T20:46:50.721Z,4.87
2022-11-26T20:49:17.223Z,3.53
2022-11-26T20:51:43.783Z,4.77
2022-11-26T20:54:13.317Z,5.43
2022-11-26T20:56:41.474Z,6.10
2022-11-26T20:59:09.714Z,5.40
2022-11-26T21:01:36.882Z,17.23
2022-11-26T21:04:03.505Z,15.83
2022-11-26T21:06:30.854Z,10.77
2022-11-26T21:09:01.260Z,10.77
2022-11-26T21:11:28.867Z,9.23
2022-11-26T21:13:56.969Z,8.43
2022-11-26T21:16:23.661Z,9.70
2022-11-26T21:18:53.051Z,16.50
2022-11-26T21:21:19.568Z,13.07
2022-11-26T21:23:46.734Z,7.83
2022-11-26T21:26:19.073Z,5.20
2022-11-26T21:28:59.172Z,4.83
2022-11-26T21:31:28.089Z,4.27
2022-11-26T21:34:03.887Z,4.07
2022-11-26T21:36:32.073Z,4.40
2022-11-26T21:38:59.052Z,4.03
2022-11-26T21:41:29.133Z,3.57
2022-11-26T21:43:55.663Z,3.90
2022-11-26T21:46:25.214Z,3.90
2022-11-26T21:48:55.980Z,4.73
2022-11-26T21:51:24.892Z,3.93
2022-11-26T21:53:53.675Z,3.00
2022-11-26T21:56:22.771Z,3.03
2022-11-26T21:58:50.047Z,2.80
2022-11-26T22:01:23.048Z,3.10
2022-11-26T22:03:52.702Z,5.03
2022-11-26T22:06:21.683Z,3.00
2022-11-26T22:08:49.084Z,3.50
2022-11-26T22:11:21.435Z,3.10
2022-11-26T22:13:47.988Z,3.37
2022-11-26T22:16:16.807Z,3.27
2022-11-26T22:18:47.212Z,3.10
2022-11-26T22:21:20.526Z,3.03
2022-11-26T22:23:47.482Z,2.57
2022-11-26T22:26:14.661Z,2.73
2022-11-26T22:28:44.047Z,2.70
2022-11-26T22:31:14.655Z,2.40
2022-11-26T22:33:45.270Z,2.80
2022-11-26T22:36:14.049Z,2.57
2022-11-26T22:38:41.545Z,2.73
2022-11-26T22:41:10.344Z,2.57
2022-11-26T22:43:37.364Z,3.67
2022-11-26T22:46:09.575Z,4.13
2022-11-26T22:48:36.470Z,4.10
2022-11-26T22:51:03.219Z,4.33
2022-11-26T22:53:29.998Z,4.13
2022-11-26T22:55:58.910Z,4.83
2022-11-26T22:58:27.152Z,5.53
2022-11-26T23:00:56.536Z,5.10
2022-11-26T23:03:25.647Z,5.03
2022-11-26T23:05:53.119Z,6.63
2022-11-26T23:08:20.727Z,4.60
2022-11-26T23:10:50.842Z,4.47
2022-11-26T23:13:19.651Z,4.90
2022-11-26T23:15:49.306Z,4.50
2022-11-26T23:18:17.150Z,4.27
2022-11-26T23:20:44.091Z,4.40
2022-11-26T23:23:10.711Z,3.90
2022-11-26T23:25:39.090Z,3.93
2022-11-26T23:28:06.630Z,4.70
2022-11-26T23:30:33.593Z,4.00
2022-11-26T23:33:00.100Z,3.50
2022-11-26T23:35:26.861Z,3.80
2022-11-26T23:37:53.331Z,3.60
2022-11-26T23:40:19.827Z,4.07
2022-11-26T23:42:48.428Z,4.30
2022-11-26T23:45:14.949Z,5.10
2022-11-26T23:47:41.469Z,4.97
2022-11-26T23:50:08.301Z,4.33
2022-11-26T23:52:35.652Z,4.63
2022-11-26T23:55:02.198Z,6.27
2022-11-26T23:57:28.746Z,4.77
2022-11-26T23:59:55.243Z,5.17
